createdAt,value
2022-08-31T00:02:03.099Z,95.60
2022-08-31T00:04:32.640Z,95.60
2022-08-31T00:07:01.043Z,95.60
2022-08-31T00:09:35.382Z,95.60
2022-08-31T00:12:04.138Z,95.60
2022-08-31T00:14:34.956Z,95.60
2022-08-31T00:17:03.246Z,95.60
2022-08-31T00:19:31.626Z,95.60
2022-08-31T00:21:59.989Z,95.60
2022-08-31T00:24:28.308Z,95.60
2022-08-31T00:26:56.630Z,95.60
2022-08-31T00:29:24.911Z,95.60
2022-08-31T00:31:54.624Z,95.50
2022-08-31T00:34:23.363Z,95.90
2022-08-31T00:36:52.119Z,95.60
2022-08-31T00:39:20.553Z,95.50
2022-08-31T00:41:48.876Z,95.90
2022-08-31T00:44:17.454Z,95.50
2022-08-31T00:46:45.806Z,95.60
2022-08-31T00:49:17.277Z,95.60
2022-08-31T00:51:46.949Z,95.60
2022-08-31T00:54:16.400Z,95.50
2022-08-31T00:56:45.144Z,95.50
2022-08-31T00:59:13.745Z,95.50
2022-08-31T01:01:42.105Z,95.50
2022-08-31T01:04:10.436Z,95.50
2022-08-31T01:06:40.170Z,95.60
2022-08-31T01:09:08.647Z,95.50
2022-08-31T01:11:37.006Z,95.50
2022-08-31T01:14:05.310Z,95.50
2022-08-31T01:16:35.408Z,95.50
2022-08-31T01:19:05.437Z,95.50
2022-08-31T01:21:36.018Z,95.50
2022-08-31T01:24:05.746Z,95.50
2022-08-31T01:26:34.139Z,95.50
2022-08-31T01:29:05.821Z,95.80
2022-08-31T01:31:35.172Z,95.50
2022-08-31T01:34:05.167Z,95.50
2022-08-31T01:36:34.182Z,95.50
2022-08-31T01:39:02.558Z,95.50
2022-08-31T01:41:32.364Z,95.50
2022-08-31T01:44:01.840Z,95.50
2022-08-31T01:46:30.174Z,95.50
2022-08-31T01:48:58.518Z,95.50
2022-08-31T01:51:26.922Z,95.50
2022-08-31T01:53:55.513Z,95.40
2022-08-31T01:56:26.057Z,95.50
2022-08-31T01:58:55.702Z,95.50
2022-08-31T02:01:33.634Z,95.50
2022-08-31T02:04:03.262Z,95.40
2022-08-31T02:06:31.771Z,95.80
2022-08-31T02:09:00.126Z,95.40
2022-08-31T02:11:28.438Z,95.50
2022-08-31T02:13:58.126Z,95.40
2022-08-31T02:16:26.487Z,95.50
2022-08-31T02:18:54.888Z,95.50
2022-08-31T02:21:23.217Z,95.50
2022-08-31T02:23:51.611Z,95.50
2022-08-31T02:26:20.295Z,95.50
2022-08-31T02:28:48.602Z,95.40
2022-08-31T02:31:18.452Z,95.40
2022-08-31T02:33:47.041Z,95.40
2022-08-31T02:36:15.326Z,95.40
2022-08-31T02:38:43.642Z,95.40
2022-08-31T02:41:11.932Z,95.40
2022-08-31T02:43:40.207Z,95.40
2022-08-31T02:46:08.565Z,95.40
2022-08-31T02:48:38.288Z,95.40
2022-08-31T02:51:08.389Z,95.40
2022-08-31T02:53:36.930Z,95.40
2022-08-31T02:56:05.383Z,95.40
2022-08-31T02:58:33.791Z,95.40
2022-08-31T03:01:02.088Z,95.40
2022-08-31T03:03:31.077Z,95.40
2022-08-31T03:06:00.704Z,95.40
2022-08-31T03:08:31.122Z,95.40
2022-08-31T03:10:59.570Z,95.40
2022-08-31T03:13:29.776Z,95.40
2022-08-31T03:15:58.294Z,95.40
2022-08-31T03:18:26.639Z,95.40
2022-08-31T03:20:54.955Z,95.40
2022-08-31T03:23:24.591Z,95.40
2022-08-31T03:25:52.958Z,95.40
2022-08-31T03:28:21.301Z,95.40
2022-08-31T03:30:50.159Z,95.40
2022-08-31T03:33:18.674Z,95.40
2022-08-31T03:35:47.122Z,95.40
2022-08-31T03:38:16.006Z,95.50
2022-08-31T03:40:45.952Z,95.40
2022-08-31T03:43:14.468Z,95.40
2022-08-31T03:45:45.450Z,95.40
2022-08-31T03:48:13.732Z,95.50
2022-08-31T03:50:42.489Z,95.40
2022-08-31T03:53:11.283Z,95.40
2022-08-31T03:55:40.736Z,95.40
2022-08-31T03:58:10.442Z,95.40
2022-08-31T04:00:38.762Z,95.50
2022-08-31T04:03:07.134Z,95.40
2022-08-31T04:05:36.371Z,95.40
2022-08-31T04:08:04.979Z,95.40
2022-08-31T04:10:33.267Z,95.40
2022-08-31T04:13:01.604Z,95.50
2022-08-31T04:15:32.515Z,95.50
2022-08-31T04:18:00.867Z,95.40
2022-08-31T04:20:30.187Z,95.50
2022-08-31T04:22:58.662Z,95.40
2022-08-31T04:25:26.961Z,95.40
2022-08-31T04:27:56.616Z,95.40
2022-08-31T04:30:26.614Z,95.50
2022-08-31T04:32:57.000Z,95.40
2022-08-31T04:35:25.305Z,95.50
2022-08-31T04:37:53.839Z,95.50
2022-08-31T04:40:25.625Z,95.50
2022-08-31T04:42:54.669Z,95.50
2022-08-31T04:45:24.382Z,95.40
2022-08-31T04:47:52.688Z,95.50
2022-08-31T04:50:22.593Z,95.40
2022-08-31T04:53:03.729Z,95.40
2022-08-31T04:55:32.781Z,95.40
2022-08-31T04:58:01.087Z,95.40
2022-08-31T05:00:29.408Z,95.40
2022-08-31T05:02:57.728Z,95.40
2022-08-31T05:05:27.424Z,95.40
2022-08-31T05:07:55.822Z,95.40
2022-08-31T05:10:24.654Z,95.40
2022-08-31T05:12:53.474Z,95.40
2022-08-31T05:15:21.742Z,95.40
2022-08-31T05:17:50.051Z,95.40
2022-08-31T05:20:18.465Z,95.40
2022-08-31T05:22:48.118Z,95.40
2022-08-31T05:25:16.476Z,95.40
2022-08-31T05:27:44.779Z,95.40
2022-08-31T05:30:13.713Z,95.40
2022-08-31T05:32:42.069Z,95.70
2022-08-31T05:35:10.395Z,95.40
2022-08-31T05:37:39.263Z,95.40
2022-08-31T05:40:10.498Z,95.40
2022-08-31T05:42:38.845Z,95.40
2022-08-31T05:45:08.357Z,95.40
2022-08-31T05:47:36.732Z,95.40
2022-08-31T05:50:08.288Z,95.40
2022-08-31T05:52:36.904Z,95.40
2022-08-31T05:55:06.065Z,95.30
2022-08-31T05:57:36.866Z,95.30
2022-08-31T06:00:06.502Z,94.40
2022-08-31T06:02:35.664Z,94.40
2022-08-31T06:05:04.094Z,93.80
2022-08-31T06:07:32.512Z,94.80
2022-08-31T06:10:01.326Z,95.00
2022-08-31T06:12:34.172Z,95.00
2022-08-31T06:15:05.201Z,93.70
2022-08-31T06:17:34.730Z,93.60
2022-08-31T06:20:03.353Z,93.60
2022-08-31T06:22:31.710Z,94.10
2022-08-31T06:25:01.219Z,94.50
2022-08-31T06:27:29.913Z,94.60
2022-08-31T06:29:59.360Z,94.60
2022-08-31T06:32:29.112Z,94.60
2022-08-31T06:35:00.202Z,94.60
2022-08-31T06:37:28.617Z,94.60
2022-08-31T06:39:57.009Z,94.60
2022-08-31T06:42:25.360Z,94.60
2022-08-31T06:44:53.662Z,94.60
2022-08-31T06:47:24.125Z,94.60
2022-08-31T06:49:57.160Z,94.70
2022-08-31T06:52:26.457Z,94.70
2022-08-31T06:54:54.764Z,94.70
2022-08-31T06:57:24.275Z,95.00
2022-08-31T06:59:55.905Z,94.70
2022-08-31T07:02:24.270Z,94.30
2022-08-31T07:04:53.940Z,94.60
2022-08-31T07:07:22.268Z,94.70
2022-08-31T07:09:50.634Z,94.70
2022-08-31T07:12:18.937Z,94.70
2022-08-31T07:14:50.566Z,94.70
2022-08-31T07:17:23.653Z,94.70
2022-08-31T07:19:53.314Z,94.70
2022-08-31T07:22:21.863Z,94.70
2022-08-31T07:24:50.364Z,94.30
2022-08-31T07:27:18.714Z,94.10
2022-08-31T07:29:47.811Z,94.30
2022-08-31T07:32:17.299Z,94.40
2022-08-31T07:34:45.655Z,94.60
2022-08-31T07:37:32.977Z,94.70
2022-08-31T07:40:18.780Z,94.70
2022-08-31T07:42:47.192Z,94.70
2022-08-31T07:45:19.936Z,94.50
2022-08-31T07:47:51.004Z,94.80
2022-08-31T07:50:19.596Z,94.90
2022-08-31T07:52:54.306Z,95.00
2022-08-31T07:55:30.555Z,94.90
2022-08-31T07:58:03.380Z,95.10
2022-08-31T08:00:33.421Z,94.80
2022-08-31T08:03:07.430Z,94.90
2022-08-31T08:05:38.793Z,94.80
2022-08-31T08:08:13.585Z,94.70
2022-08-31T08:10:52.122Z,94.60
2022-08-31T08:13:23.109Z,94.50
2022-08-31T08:15:52.333Z,94.80
2022-08-31T08:18:21.195Z,94.60
2022-08-31T08:20:49.634Z,94.50
2022-08-31T08:23:26.798Z,94.40
2022-08-31T08:26:01.394Z,94.40
2022-08-31T08:28:45.410Z,94.40
2022-08-31T08:31:14.926Z,94.60
2022-08-31T08:33:43.369Z,94.60
2022-08-31T08:36:11.759Z,94.40
2022-08-31T08:38:43.878Z,94.40
2022-08-31T08:41:14.261Z,94.30
2022-08-31T08:43:50.050Z,94.30
2022-08-31T08:46:34.870Z,94.30
2022-08-31T08:49:08.317Z,94.20
2022-08-31T08:51:39.176Z,94.20
2022-08-31T08:54:16.643Z,94.40
2022-08-31T08:56:49.066Z,94.40
2022-08-31T08:59:20.013Z,94.10
2022-08-31T09:01:50.543Z,94.20
2022-08-31T09:04:26.300Z,94.10
2022-08-31T09:06:56.966Z,94.10
2022-08-31T09:09:32.564Z,94.10
2022-08-31T09:12:12.547Z,94.00
2022-08-31T09:14:49.797Z,94.00
2022-08-31T09:17:30.343Z,93.90
2022-08-31T09:20:04.166Z,93.90
2022-08-31T09:22:47.095Z,93.90
2022-08-31T09:25:19.014Z,93.90
2022-08-31T09:27:50.870Z,93.90
2022-08-31T09:30:41.307Z,94.00
2022-08-31T09:33:17.793Z,94.00
2022-08-31T09:35:46.171Z,94.10
2022-08-31T09:38:26.875Z,93.80
2022-08-31T09:40:56.651Z,93.90
2022-08-31T09:43:31.262Z,93.80
2022-08-31T09:46:03.605Z,93.90
2022-08-31T09:48:45.883Z,93.90
2022-08-31T09:51:22.596Z,93.90
2022-08-31T09:54:15.759Z,93.90
2022-08-31T09:56:55.318Z,94.00
2022-08-31T09:59:30.913Z,93.90
2022-08-31T10:02:01.261Z,93.90
2022-08-31T10:04:30.717Z,93.90
2022-08-31T10:07:01.767Z,93.90
2022-08-31T10:09:36.002Z,93.90
2022-08-31T10:12:08.228Z,94.00
2022-08-31T10:14:41.684Z,93.90
2022-08-31T10:17:15.112Z,93.80
2022-08-31T10:19:53.217Z,93.80
2022-08-31T10:22:28.080Z,93.80
2022-08-31T10:25:07.355Z,93.70
2022-08-31T10:27:42.339Z,93.70
2022-08-31T10:30:19.207Z,93.80
2022-08-31T10:32:48.696Z,93.80
2022-08-31T10:35:19.472Z,93.80
2022-08-31T10:37:54.929Z,93.70
2022-08-31T10:40:28.490Z,93.70
2022-08-31T10:43:09.483Z,93.60
2022-08-31T10:45:41.292Z,93.50
2022-08-31T10:48:15.359Z,93.80
2022-08-31T10:50:48.121Z,93.70
2022-08-31T10:53:35.973Z,93.70
2022-08-31T10:56:14.368Z,93.70
2022-08-31T10:59:02.972Z,93.80
2022-08-31T11:01:37.221Z,94.00
2022-08-31T11:04:23.011Z,94.00
2022-08-31T11:06:53.481Z,93.80
2022-08-31T11:09:24.253Z,93.70
2022-08-31T11:11:58.198Z,93.80
2022-08-31T11:14:43.914Z,93.80
2022-08-31T11:17:32.188Z,93.70
2022-08-31T11:20:28.970Z,93.50
2022-08-31T11:23:18.980Z,93.50
2022-08-31T11:26:20.599Z,93.50
2022-08-31T11:28:50.120Z,93.50
2022-08-31T11:31:23.849Z,93.40
2022-08-31T11:34:14.527Z,93.40
2022-08-31T11:36:48.061Z,93.40
2022-08-31T11:39:44.185Z,93.40
2022-08-31T11:42:48.716Z,93.50
2022-08-31T11:45:27.639Z,93.40
2022-08-31T11:47:57.491Z,93.30
2022-08-31T11:51:07.239Z,93.40
2022-08-31T11:53:37.377Z,93.40
2022-08-31T11:56:06.547Z,93.40
2022-08-31T11:58:37.914Z,93.40
2022-08-31T12:01:26.025Z,93.40
2022-08-31T12:04:03.707Z,93.40
2022-08-31T12:06:58.102Z,93.00
2022-08-31T12:09:44.474Z,92.80
2022-08-31T12:12:19.616Z,92.50
2022-08-31T12:14:50.097Z,92.30
2022-08-31T12:17:21.755Z,92.10
2022-08-31T12:20:01.641Z,92.20
2022-08-31T12:23:30.149Z,92.30
2022-08-31T12:26:07.074Z,92.20
2022-08-31T12:28:42.778Z,92.20
2022-08-31T12:31:14.786Z,92.20
2022-08-31T12:33:46.268Z,92.20
2022-08-31T12:36:17.200Z,92.10
2022-08-31T12:38:45.822Z,92.00
2022-08-31T12:41:14.534Z,92.10
2022-08-31T12:43:43.963Z,92.10
2022-08-31T12:46:29.608Z,92.00
2022-08-31T12:49:12.261Z,91.90
2022-08-31T12:51:45.001Z,91.80
2022-08-31T12:54:34.579Z,91.80
2022-08-31T12:57:07.258Z,91.80
2022-08-31T12:59:57.484Z,91.90
2022-08-31T13:02:27.722Z,92.00
2022-08-31T13:04:56.210Z,92.00
2022-08-31T13:07:31.107Z,91.90
2022-08-31T13:10:08.857Z,91.90
2022-08-31T13:12:37.218Z,92.00
2022-08-31T13:15:06.260Z,92.00
2022-08-31T13:17:36.823Z,92.00
2022-08-31T13:20:08.742Z,92.00
2022-08-31T13:22:41.119Z,91.90
2022-08-31T13:25:16.420Z,92.00
2022-08-31T13:27:49.330Z,92.00
2022-08-31T13:30:19.651Z,91.90
2022-08-31T13:32:49.946Z,91.80
2022-08-31T13:35:19.943Z,91.70
2022-08-31T13:38:00.144Z,91.70
2022-08-31T13:40:28.634Z,91.60
2022-08-31T13:42:57.347Z,91.50
2022-08-31T13:45:27.397Z,91.30
2022-08-31T13:47:58.079Z,91.30
2022-08-31T13:50:30.781Z,91.30
2022-08-31T13:53:25.900Z,91.30
2022-08-31T13:55:50.302Z,91.20
2022-08-31T13:58:26.059Z,91.10
2022-08-31T14:00:58.093Z,91.10
2022-08-31T14:03:34.902Z,90.90
2022-08-31T14:06:24.754Z,91.00
2022-08-31T14:08:56.669Z,91.00
2022-08-31T14:11:28.444Z,91.10
2022-08-31T14:13:56.986Z,91.00
2022-08-31T14:16:32.748Z,91.10
2022-08-31T14:19:01.647Z,91.00
2022-08-31T14:21:31.501Z,90.90
2022-08-31T14:24:04.646Z,90.90
2022-08-31T14:26:33.900Z,91.20
2022-08-31T14:29:03.587Z,91.40
2022-08-31T14:31:34.780Z,91.50
2022-08-31T14:34:20.157Z,91.50
2022-08-31T14:36:52.561Z,91.50
2022-08-31T14:39:24.335Z,91.60
2022-08-31T14:41:53.306Z,91.60
2022-08-31T14:44:22.470Z,91.60
2022-08-31T14:46:50.985Z,91.60
2022-08-31T14:49:19.290Z,91.50
2022-08-31T14:51:47.672Z,91.40
2022-08-31T14:54:17.083Z,91.40
2022-08-31T14:56:50.170Z,91.40
2022-08-31T14:59:19.712Z,91.40
2022-08-31T15:01:50.582Z,91.40
2022-08-31T15:04:20.497Z,91.40
2022-08-31T15:06:50.914Z,91.50
2022-08-31T15:09:19.278Z,91.50
2022-08-31T15:11:50.868Z,91.50
2022-08-31T15:14:19.208Z,91.40
2022-08-31T15:16:48.888Z,91.50
2022-08-31T15:19:17.939Z,91.40
2022-08-31T15:21:52.784Z,91.30
2022-08-31T15:24:27.173Z,90.10
2022-08-31T15:26:59.569Z,90.10
2022-08-31T15:29:28.937Z,90.10
2022-08-31T15:31:58.523Z,90.20
2022-08-31T15:34:29.466Z,90.20
2022-08-31T15:36:58.836Z,90.30
2022-08-31T15:39:28.301Z,90.60
2022-08-31T15:41:57.941Z,90.90
2022-08-31T15:44:26.337Z,91.10
2022-08-31T15:47:12.277Z,91.00
2022-08-31T15:49:43.564Z,91.20
2022-08-31T15:52:16.689Z,91.20
2022-08-31T15:54:45.659Z,91.30
2022-08-31T15:57:15.937Z,91.30
2022-08-31T15:59:46.161Z,91.30
2022-08-31T16:02:14.842Z,91.30
2022-08-31T16:04:43.717Z,91.30
2022-08-31T16:07:12.319Z,91.40
2022-08-31T16:09:46.051Z,91.40
2022-08-31T16:12:16.429Z,91.20
2022-08-31T16:14:45.244Z,91.40
2022-08-31T16:17:19.317Z,91.30
2022-08-31T16:19:47.883Z,91.40
2022-08-31T16:22:18.724Z,91.30
2022-08-31T16:24:51.030Z,91.30
2022-08-31T16:27:24.658Z,91.40
2022-08-31T16:29:53.002Z,91.40
2022-08-31T16:32:21.333Z,91.30
2022-08-31T16:34:49.684Z,91.40
2022-08-31T16:37:18.326Z,91.40
2022-08-31T16:39:47.860Z,91.40
2022-08-31T16:42:16.419Z,91.50
2022-08-31T16:44:46.762Z,91.40
2022-08-31T16:47:20.177Z,91.50
2022-08-31T16:49:47.639Z,91.60
2022-08-31T16:52:21.219Z,90.70
2022-08-31T16:54:50.942Z,90.90
2022-08-31T16:57:20.725Z,91.20
2022-08-31T16:59:53.217Z,91.20
2022-08-31T17:02:22.976Z,91.20
2022-08-31T17:04:53.502Z,91.20
2022-08-31T17:07:23.868Z,91.50
2022-08-31T17:09:55.834Z,91.10
2022-08-31T17:12:25.869Z,91.00
2022-08-31T17:14:56.042Z,91.10
2022-08-31T17:17:25.345Z,91.00
2022-08-31T17:19:55.763Z,91.10
2022-08-31T17:22:32.965Z,91.00
2022-08-31T17:25:02.918Z,91.00
2022-08-31T17:27:32.996Z,91.00
2022-08-31T17:30:05.734Z,90.90
2022-08-31T17:32:36.545Z,91.00
2022-08-31T17:35:08.896Z,91.00
2022-08-31T17:37:37.210Z,90.90
2022-08-31T17:40:07.950Z,90.90
2022-08-31T17:42:36.843Z,91.00
2022-08-31T17:45:08.805Z,91.00
2022-08-31T17:47:37.107Z,91.00
2022-08-31T17:50:08.082Z,91.00
2022-08-31T17:52:38.598Z,91.00
2022-08-31T17:55:07.729Z,91.00
2022-08-31T17:57:36.011Z,91.00
2022-08-31T18:00:07.796Z,91.00
2022-08-31T18:02:37.507Z,91.10
2022-08-31T18:05:11.512Z,91.10
2022-08-31T18:07:40.955Z,91.00
2022-08-31T18:10:10.745Z,91.10
2022-08-31T18:12:41.032Z,91.10
2022-08-31T18:15:12.119Z,91.10
2022-08-31T18:17:40.566Z,91.10
2022-08-31T18:20:10.604Z,91.10
2022-08-31T18:22:39.813Z,91.10
2022-08-31T18:25:08.956Z,91.10
2022-08-31T18:27:37.314Z,91.20
2022-08-31T18:30:06.890Z,91.10
2022-08-31T18:32:36.830Z,91.10
2022-08-31T18:35:16.790Z,91.20
2022-08-31T18:37:46.810Z,91.00
2022-08-31T18:40:33.005Z,91.00
2022-08-31T18:43:20.316Z,90.90
2022-08-31T18:45:48.965Z,90.20
2022-08-31T18:48:25.249Z,90.00
2022-08-31T18:50:58.813Z,90.10
2022-08-31T18:53:32.334Z,90.20
2022-08-31T18:56:06.329Z,90.20
2022-08-31T18:58:35.568Z,90.30
2022-08-31T19:01:04.665Z,90.40
2022-08-31T19:03:34.601Z,90.40
2022-08-31T19:06:02.951Z,90.40
2022-08-31T19:08:34.392Z,90.50
2022-08-31T19:11:03.188Z,90.60
2022-08-31T19:13:32.111Z,90.70
2022-08-31T19:16:14.668Z,90.90
2022-08-31T19:18:45.784Z,91.10
2022-08-31T19:21:15.555Z,91.30
2022-08-31T19:23:44.040Z,91.50
2022-08-31T19:26:18.037Z,91.60
2022-08-31T19:28:48.757Z,91.80
2022-08-31T19:31:21.714Z,91.90
2022-08-31T19:33:56.431Z,92.20
2022-08-31T19:36:27.112Z,92.40
2022-08-31T19:38:55.998Z,92.60
2022-08-31T19:41:25.131Z,92.70
2022-08-31T19:44:05.701Z,92.80
2022-08-31T19:46:39.922Z,93.00
2022-08-31T19:49:10.886Z,93.20
2022-08-31T19:51:40.168Z,93.30
2022-08-31T19:54:11.429Z,93.40
2022-08-31T19:56:41.184Z,93.20
2022-08-31T19:59:09.724Z,93.10
2022-08-31T20:01:39.775Z,93.10
2022-08-31T20:04:15.916Z,93.00
2022-08-31T20:06:45.134Z,92.90
2022-08-31T20:09:13.536Z,93.00
2022-08-31T20:11:41.881Z,92.90
2022-08-31T20:14:10.682Z,93.30
2022-08-31T20:16:41.635Z,93.00
2022-08-31T20:19:13.885Z,93.00
2022-08-31T20:21:42.581Z,93.00
2022-08-31T20:24:12.618Z,93.00
2022-08-31T20:26:47.583Z,93.00
2022-08-31T20:29:23.469Z,93.10
2022-08-31T20:31:53.876Z,93.50
2022-08-31T20:34:27.852Z,93.10
2022-08-31T20:37:00.865Z,93.20
2022-08-31T20:39:35.222Z,93.20
2022-08-31T20:42:03.735Z,93.20
2022-08-31T20:44:33.633Z,93.20
2022-08-31T20:47:20.439Z,93.20
2022-08-31T20:49:54.733Z,93.30
2022-08-31T20:52:23.925Z,93.30
2022-08-31T20:54:52.715Z,93.30
2022-08-31T20:57:30.047Z,93.30
2022-08-31T21:00:00.483Z,93.30
2022-08-31T21:02:31.000Z,93.30
2022-08-31T21:05:20.810Z,93.30
2022-08-31T21:07:50.260Z,93.30
2022-08-31T21:10:32.561Z,93.30
2022-08-31T21:13:08.006Z,93.30
2022-08-31T21:15:39.882Z,93.40
2022-08-31T21:18:08.195Z,93.30
2022-08-31T21:20:38.066Z,94.00
2022-08-31T21:23:13.299Z,94.20
2022-08-31T21:25:43.648Z,94.70
2022-08-31T21:28:13.538Z,94.50
2022-08-31T21:30:41.936Z,94.50
2022-08-31T21:33:10.214Z,94.60
2022-08-31T21:35:43.668Z,94.80
2022-08-31T21:38:12.892Z,94.90
2022-08-31T21:40:48.222Z,94.90
2022-08-31T21:43:16.749Z,94.90
2022-08-31T21:45:45.087Z,94.80
2022-08-31T21:48:13.370Z,94.70
2022-08-31T21:50:43.940Z,94.60
2022-08-31T21:53:12.987Z,94.50
2022-08-31T21:55:41.313Z,94.40
2022-08-31T21:58:10.679Z,94.40
2022-08-31T22:00:41.998Z,94.30
2022-08-31T22:03:10.481Z,94.30
2022-08-31T22:05:39.597Z,94.30
2022-08-31T22:08:11.047Z,94.20
2022-08-31T22:10:43.754Z,94.20
2022-08-31T22:13:12.893Z,94.20
2022-08-31T22:15:42.582Z,94.20
2022-08-31T22:18:58.105Z,94.20
2022-08-31T22:20:59.575Z,94.20
2022-08-31T22:23:29.223Z,94.10
2022-08-31T22:26:00.132Z,94.10
2022-08-31T22:28:28.457Z,94.10
2022-08-31T22:30:57.085Z,94.10
2022-08-31T22:33:28.314Z,94.10
2022-08-31T22:35:56.611Z,94.10
2022-08-31T22:38:24.911Z,94.10
2022-08-31T22:40:54.562Z,94.10
2022-08-31T22:43:25.714Z,94.10
2022-08-31T22:45:54.416Z,94.10
2022-08-31T22:48:22.727Z,94.10
2022-08-31T22:50:50.993Z,94.10
2022-08-31T22:53:21.720Z,94.10
2022-08-31T22:55:50.423Z,94.10
2022-08-31T22:58:20.184Z,94.10
2022-08-31T23:00:51.431Z,94.10
2022-08-31T23:03:21.994Z,94.10
2022-08-31T23:05:51.910Z,94.10
2022-08-31T23:08:22.322Z,94.10
2022-08-31T23:10:50.725Z,94.10
2022-08-31T23:13:40.455Z,94.10
2022-08-31T23:16:09.272Z,94.10
2022-08-31T23:18:41.525Z,94.10
2022-08-31T23:21:09.833Z,94.10
2022-08-31T23:23:38.154Z,94.10
2022-08-31T23:26:10.431Z,94.10
2022-08-31T23:28:40.132Z,94.10
2022-08-31T23:31:08.492Z,94.10
2022-08-31T23:33:37.205Z,94.10
2022-08-31T23:36:08.085Z,94.10
2022-08-31T23:38:37.904Z,94.10
2022-08-31T23:41:06.511Z,94.20
2022-08-31T23:43:43.718Z,94.10
2022-08-31T23:46:12.671Z,94.10
2022-08-31T23:48:40.978Z,94.20
2022-08-31T23:51:09.737Z,94.20
2022-08-31T23:53:38.757Z,94.20
2022-08-31T23:56:16.543Z,94.20
2022-08-31T23:58:47.730Z,94.20
